Terminal Aerodrome Forecast
Issued by NWS

Home | Current Version | Previous Version | Text Only | Print | Product List | Glossary On
Versions: 1 2 3 4 5 6 7 8 9 10 11 12 13 14 15 16 17 18 19 20 21 22
000
FTUS44 KLZK 300535
TAFLIT
TAF
KLIT 300535Z 3006/0106 31010KT 5SM TSRA BR SCT025 OVC040CB
      WS020/17045KT
      TEMPO 3006/3008 VRB15G35KT 1SM +TSRA BR OVC005CB
     FM300800 18012KT 5SM TSRA BR BKN015 OVC030CB
     FM301500 22013G23KT P6SM OVC040
     FM301900 23016G26KT P6SM OVC050
     FM010000 22014G24KT P6SM OVC100=

USA.gov is the U.S. government's official web portal to all federal, state and local government web resources and services.